Flight Track Log - Related Links

Times and Time Zones

All times are in EDT time to prevent confusion due to time zone crossing. See the THY791 flight status page for this flight to view local times or setup timezone preferences in your user account.

Time Position Orientation Groundspeed Altitude Reporting Facility
EDT Latitude Longitude Course Direction KTS MPH feet Rate Location/Type
Fri 06:25:00 PM 33.6280 33.8955 333° Northwest  Level Estimated
Fri 06:26:00 PM 33.7177 33.8399 333° Northwest  Level Estimated
Fri 06:27:00 PM 33.8074 33.7842 333° Northwest  Level Estimated
Fri 06:28:00 PM 33.8970 33.7284 333° Northwest  Level Estimated
Fri 06:29:00 PM 33.9866 33.6725 333° Northwest  Level Estimated
Fri 06:30:00 PM 34.0762 33.6164 333° Northwest  Level Estimated
Fri 06:31:00 PM 34.1658 33.5602 333° Northwest  Level Estimated
Fri 06:32:00 PM 34.2553 33.5039 333° Northwest  Level Estimated
Fri 06:33:00 PM 34.3448 33.4475 333° Northwest  Level Estimated
Fri 06:34:00 PM 34.4343 33.3910 332° Northwest  Level Estimated
Fri 06:35:00 PM 34.5238 33.3343 332° Northwest  Level Estimated
Fri 06:36:00 PM 34.6132 33.2775 332° Northwest  Level Estimated
Fri 06:37:00 PM 34.7026 33.2206 332° Northwest  Level Estimated
Fri 06:38:00 PM 34.7920 33.1636 332° Northwest  Level Estimated
Fri 06:39:00 PM 34.8814 33.1065 332° Northwest  Level Estimated
Fri 06:40:00 PM 34.9707 33.0492 332° Northwest  Level Estimated
Fri 06:41:00 PM 35.0600 32.9918 332° Northwest  Level Estimated
Fri 06:42:00 PM 35.1493 32.9343 332° Northwest  Level Estimated
Fri 06:43:00 PM 35.2385 32.8766 332° Northwest  Level Estimated
Fri 06:44:00 PM 35.3277 32.8189 332° Northwest  Level Estimated
Fri 06:45:00 PM 35.4169 32.7609 332° Northwest  Level Estimated
Fri 06:46:00 PM 35.5061 32.7029 332° Northwest  Level Estimated
Fri 06:47:00 PM 35.5952 32.6448 332° Northwest  Level Estimated
Fri 06:48:00 PM 35.6843 32.5865 332° Northwest  Level Estimated
Fri 06:49:00 PM 35.7734 32.5280 332° Northwest  Level Estimated
Fri 06:50:00 PM 35.8624 32.4695 332° Northwest  Level Estimated
Fri 06:51:00 PM 35.9515 32.4108 332° Northwest  Level Estimated
Fri 06:52:00 PM 36.0405 32.3520 332° Northwest  Level Estimated
Fri 06:53:00 PM 36.1294 32.2930 332° Northwest  Level Estimated
Fri 06:54:00 PM 36.2184 32.2340 332° Northwest  Level Estimated
Fri 06:55:00 PM 36.3073 32.1748 332° Northwest  Level Estimated
Fri 06:56:00 PM 36.3962 32.1154 332° Northwest  Level Estimated
Fri 06:57:00 PM 36.4850 32.0559 332° Northwest  Level Estimated
Fri 06:58:00 PM 36.5738 31.9963 332° Northwest  Level Estimated
Fri 06:59:00 PM 36.6626 31.9365 332° Northwest  Level Estimated
Fri 07:00:00 PM 36.7514 31.8766 332° Northwest  Level Estimated
Fri 07:01:00 PM 36.8401 31.8166 332° Northwest  Level Estimated
Fri 07:02:00 PM 36.9288 31.7564 332° Northwest  Level Estimated
Fri 07:03:00 PM 37.0175 31.6961 331° Northwest  Level Estimated
Fri 07:04:00 PM 37.1061 31.6356 331° Northwest  Level Estimated
Fri 07:05:00 PM 37.1947 31.5750 331° Northwest  Level Estimated
Fri 07:06:00 PM 37.2833 31.5143 331° Northwest  Level Estimated
Fri 07:07:00 PM 37.3718 31.4534 331° Northwest  Level Estimated
Fri 07:08:00 PM 37.4604 31.3924 331° Northwest  Level Estimated
Fri 07:09:00 PM 37.5488 31.3312 331° Northwest  Level Estimated
Fri 07:10:00 PM 37.6373 31.2699 331° Northwest  Level Estimated
Fri 07:11:00 PM 37.7257 31.2084 331° Northwest  Level Estimated
Fri 07:12:00 PM 37.8141 31.1468 331° Northwest  Level Estimated
Fri 07:13:00 PM 37.9024 31.0850 331° Northwest  Level Estimated
Fri 07:14:00 PM 37.9908 31.0231 331° Northwest  Level Estimated
Fri 07:15:00 PM 38.0790 30.9611 331° Northwest  Level Estimated
Fri 07:16:00 PM 38.1673 30.8988 331° Northwest  Level Estimated
Fri 07:17:00 PM 38.2555 30.8365 331° Northwest  Level Estimated
Fri 07:18:00 PM 38.3437 30.7740 331° Northwest  Level Estimated
Fri 07:19:00 PM 38.4319 30.7113 331° Northwest  Level Estimated
Fri 07:20:00 PM 38.5200 30.6485 331° Northwest  Level Estimated
Fri 07:21:00 PM 38.6081 30.5855 331° Northwest  Level Estimated
Fri 07:22:00 PM 38.6962 30.5224 331° Northwest  Level Estimated
Fri 07:23:00 PM 38.7842 30.4591 331° Northwest  Level Estimated
Fri 07:24:00 PM 38.8722 30.3957 331° Northwest  Level Estimated
Fri 07:25:00 PM 38.9601 30.3321 331° Northwest  Level Estimated
Fri 07:26:00 PM 39.0480 30.2683 331° Northwest  Level Estimated
Fri 07:27:00 PM 39.1359 30.2044 331° Northwest  Level Estimated
Fri 07:28:00 PM 39.2238 30.1403 331° Northwest  Level Estimated
Fri 07:29:00 PM 39.3116 30.0761 330° Northwest  Level Estimated
Fri 07:30:00 PM 39.3994 30.0117 330° Northwest  Level Estimated
Fri 07:31:00 PM 39.4871 29.9472 330° Northwest  Level Estimated
Fri 07:32:00 PM 39.5748 29.8824 330° Northwest  Level Estimated
Fri 07:33:00 PM 39.6625 29.8176 330° Northwest  Level Estimated
Fri 07:34:00 PM 39.7501 29.7525 330° Northwest  Level Estimated
Fri 07:35:00 PM 39.8377 29.6873 330° Northwest  Level Estimated
Fri 07:36:00 PM 39.9253 29.6219 330° Northwest  Level Estimated
Fri 07:37:00 PM 40.0128 29.5564 330° Northwest  Level Estimated
Fri 07:38:00 PM 40.1003 29.4907 330° Northwest  Level Estimated
Fri 07:39:00 PM 40.1878 29.4248 330° Northwest  Level Estimated
Fri 07:40:00 PM 40.2752 29.3587 330° Northwest  Level Estimated
Fri 07:41:00 PM 40.3625 29.2925 330° Northwest  Level Estimated
Fri 07:42:00 PM 40.4499 29.2261 330° Northwest  Level Estimated
Fri 07:43:00 PM 40.5372 29.1595 330° Northwest  Level Estimated
Fri 07:44:00 PM 40.6245 29.0928 330° Northwest  Level Estimated
Fri 07:45:00 PM 40.7117 29.0259 330° Northwest  Level Estimated
Fri 07:46:00 PM 40.7989 28.9588 330° Northwest  Level Estimated
Fri 07:47:00 PM 40.8860 28.8915 330° Northwest  Level Estimated
Fri 07:48:00 PM 40.9731 28.8240 330° Northwest  Level Estimated
Fri 07:49:00 PM 40.9769 28.8211 330° Northwest  Level Estimated
Fri 07:50:00 PM 40.9769 28.8211 North  Level Estimated
Fri 07:51:00 PM 40.9769 28.8211 North  Level Estimated
Fri 07:52:00 PM 40.9769 28.8211 North  Level Estimated
Fri 07:53:00 PM 40.9769 28.8211 North  Level Estimated
Fri 07:54:00 PM 40.9769 28.8211 North  Level Estimated
Fri 07:55:00 PM 40.9769 28.8211 North  Level Estimated
Fri 07:56:00 PM 40.9769 28.8211 North  Level Estimated
Fri 07:57:00 PM 40.9769 28.8211 North  Level Estimated
Fri 07:58:00 PM 40.9769 28.8211 North  Level Estimated
Fri 07:59:00 PM 40.9769 28.8211 North  Level Estimated
Fri 08:00:00 PM 40.9769 28.8211 North  Level Estimated

Login

Don't have an account? Register now (free) for customized features, flight alerts, and more!